Time;durP1;ratioP1;P1;durP2;ratioP2;P2;SDS_P1;SDS_P2;PMS_P1;PMS_P2;Temp;Humidity;BMP_temperature;BMP_pressure;BME280_temperature;BME280_humidity;BME280_pressure;Samples;Min_cycle;Max_cycle;Signal;HPM_P1;HPM_P2
2023/09/25 00:01:19;;;;;;;0.82;0.60;;;13.00;99.90;;;;;;7392469;19;20156;-83
2023/09/25 00:03:45;;;;;;;1.60;1.10;;;13.30;99.90;;;;;;7392419;19;20158;-83
2023/09/25 00:06:11;;;;;;;0.77;0.73;;;13.60;99.90;;;;;;7389192;19;20493;-82
2023/09/25 00:08:36;;;;;;;1.80;1.10;;;13.00;99.90;;;;;;7391007;19;20720;-83
2023/09/25 00:11:03;;;;;;;1.35;1.10;;;12.70;99.90;;;;;;7391788;19;20251;-84
2023/09/25 00:13:29;;;;;;;1.48;1.00;;;12.70;99.90;;;;;;7392226;19;20138;-82
2023/09/25 00:16:00;;;;;;;1.30;1.00;;;12.70;99.90;;;;;;7390132;19;20138;-81
2023/09/25 00:18:27;;;;;;;1.75;1.08;;;13.10;99.90;;;;;;7392655;19;20138;-83
2023/09/25 00:20:53;;;;;;;0.90;0.80;;;13.10;99.90;;;;;;7391582;19;20150;-83
2023/09/25 00:23:20;;;;;;;1.00;0.90;;;12.80;99.90;;;;;;7395731;19;20130;-82
2023/09/25 00:25:46;;;;;;;1.40;1.00;;;12.60;99.90;;;;;;7397470;19;20130;-82
2023/09/25 00:28:11;;;;;;;1.25;1.15;;;12.60;99.90;;;;;;7395380;19;20127;-83
2023/09/25 00:30:38;;;;;;;1.23;0.90;;;12.60;99.90;;;;;;7399723;19;20545;-83
2023/09/25 00:33:04;;;;;;;1.10;0.85;;;12.60;99.90;;;;;;7398519;19;20139;-83
2023/09/25 00:35:29;;;;;;;1.42;1.00;;;12.60;99.90;;;;;;7397277;19;20583;-83
2023/09/25 00:37:55;;;;;;;1.27;0.98;;;12.80;99.90;;;;;;7398863;19;20137;-84
2023/09/25 00:40:24;;;;;;;0.60;0.60;;;12.90;99.90;;;;;;7398127;19;20130;-83
2023/09/25 00:42:53;;;;;;;1.65;0.70;;;12.80;99.90;;;;;;7398639;19;20131;-84
2023/09/25 00:45:19;;;;;;;1.42;1.23;;;13.00;99.90;;;;;;7397299;19;20598;-83
2023/09/25 00:47:46;;;;;;;1.00;0.90;;;12.90;99.90;;;;;;7396991;19;20487;-84
2023/09/25 00:50:12;;;;;;;0.80;0.60;;;12.60;99.90;;;;;;7397909;19;20146;-83
2023/09/25 00:52:43;;;;;;;0.80;0.80;;;12.70;99.90;;;;;;7400022;19;20142;-82
2023/09/25 00:55:10;;;;;;;1.02;0.73;;;13.10;99.90;;;;;;7398318;19;20141;-83
2023/09/25 00:57:40;;;;;;;1.40;1.17;;;12.90;99.90;;;;;;7398046;19;20498;-81
2023/09/25 01:00:11;;;;;;;1.10;0.80;;;13.10;99.90;;;;;;7398569;19;20126;-84
2023/09/25 01:02:38;;;;;;;1.13;0.70;;;12.80;99.90;;;;;;7397806;19;20519;-83
2023/09/25 01:05:11;;;;;;;1.10;1.00;;;12.70;99.90;;;;;;7396356;19;20146;-83
2023/09/25 01:07:37;;;;;;;1.30;0.95;;;12.60;99.90;;;;;;7394718;19;20142;-82
2023/09/25 01:10:07;;;;;;;0.73;0.73;;;12.70;99.90;;;;;;7399124;19;20135;-83
2023/09/25 01:12:34;;;;;;;1.30;0.82;;;12.70;99.90;;;;;;7396950;19;20165;-83
2023/09/25 01:15:01;;;;;;;0.73;0.73;;;12.80;99.90;;;;;;7395775;19;20143;-83
2023/09/25 01:17:28;;;;;;;2.13;1.15;;;12.90;99.90;;;;;;7397046;19;20214;-82
2023/09/25 01:19:54;;;;;;;2.00;0.68;;;12.90;99.90;;;;;;7396112;19;20146;-83
2023/09/25 01:22:19;;;;;;;1.40;1.10;;;13.00;99.90;;;;;;7397014;19;20146;-82
2023/09/25 01:24:45;;;;;;;1.65;1.15;;;13.00;99.90;;;;;;7396540;19;20155;-83
2023/09/25 01:27:11;;;;;;;2.60;1.20;;;12.60;99.90;;;;;;7394425;19;20131;-83
2023/09/25 01:29:37;;;;;;;0.90;0.82;;;12.50;99.90;;;;;;7396187;19;20494;-83
2023/09/25 01:32:03;;;;;;;1.52;1.20;;;12.60;99.90;;;;;;7395909;19;20174;-83
2023/09/25 01:34:28;;;;;;;1.55;1.00;;;12.40;99.90;;;;;;7393886;19;20154;-82
2023/09/25 01:36:55;;;;;;;2.20;1.17;;;12.80;99.90;;;;;;7397306;19;20226;-83
2023/09/25 01:39:21;;;;;;;1.08;0.90;;;12.70;99.90;;;;;;7398100;19;20130;-83
2023/09/25 01:41:46;;;;;;;1.10;1.00;;;12.80;99.90;;;;;;7395841;19;20502;-83
2023/09/25 01:44:12;;;;;;;1.58;1.08;;;12.40;99.90;;;;;;7396905;19;20127;-83
2023/09/25 01:46:40;;;;;;;1.13;1.00;;;12.20;99.90;;;;;;7398865;19;20139;-83
2023/09/25 01:49:07;;;;;;;1.10;1.00;;;12.30;99.90;;;;;;7396836;19;20138;-83
2023/09/25 01:51:33;;;;;;;1.30;0.98;;;12.30;99.90;;;;;;7395590;19;20206;-83
2023/09/25 01:53:59;;;;;;;0.80;0.70;;;12.30;99.90;;;;;;7397809;19;20237;-83
2023/09/25 01:56:25;;;;;;;3.63;1.05;;;12.40;99.90;;;;;;7397209;19;20134;-83
2023/09/25 01:58:51;;;;;;;1.63;0.90;;;12.50;99.90;;;;;;7397863;19;20591;-83
2023/09/25 02:01:16;;;;;;;3.38;1.30;;;12.20;99.90;;;;;;7396179;19;20142;-83
2023/09/25 02:03:42;;;;;;;1.52;1.15;;;12.20;99.90;;;;;;7396727;19;20131;-83
2023/09/25 02:06:08;;;;;;;1.17;1.08;;;12.70;99.90;;;;;;7390032;19;20149;-82
2023/09/25 02:08:34;;;;;;;2.58;1.35;;;12.50;99.90;;;;;;7394014;19;20134;-83
2023/09/25 02:10:59;;;;;;;1.42;1.15;;;12.30;99.90;;;;;;7396309;19;20154;-84
2023/09/25 02:13:25;;;;;;;1.23;1.10;;;12.60;99.90;;;;;;7395810;19;20591;-82
2023/09/25 02:15:51;;;;;;;1.10;1.00;;;12.70;99.90;;;;;;7396756;19;20576;-83
2023/09/25 02:18:17;;;;;;;0.97;0.83;;;12.60;99.90;;;;;;7397197;19;20141;-83
2023/09/25 02:20:43;;;;;;;1.52;0.85;;;12.40;99.90;;;;;;7396774;19;20165;-83
2023/09/25 02:23:09;;;;;;;1.63;1.05;;;12.10;99.90;;;;;;7395038;19;20158;-84
2023/09/25 02:25:35;;;;;;;2.10;0.82;;;11.90;99.90;;;;;;7393956;19;20131;-83
2023/09/25 02:28:01;;;;;;;1.23;0.80;;;11.80;99.90;;;;;;7393800;19;20150;-84
2023/09/25 02:30:26;;;;;;;2.20;1.00;;;12.10;99.90;;;;;;7395357;19;20130;-84
2023/09/25 02:32:52;;;;;;;1.77;1.10;;;12.50;99.90;;;;;;7394179;19;20154;-83
2023/09/25 02:35:18;;;;;;;1.10;1.00;;;12.70;99.90;;;;;;7395699;19;20177;-83
2023/09/25 02:37:44;;;;;;;1.27;1.13;;;12.80;99.90;;;;;;7395851;19;20165;-84
2023/09/25 02:40:13;;;;;;;2.05;0.80;;;13.00;99.90;;;;;;7396475;19;20143;-84
2023/09/25 02:42:40;;;;;;;1.52;0.80;;;13.10;99.90;;;;;;7396668;19;20844;-84
2023/09/25 02:45:06;;;;;;;1.13;0.90;;;13.00;99.90;;;;;;7396442;19;20232;-84
2023/09/25 02:47:32;;;;;;;1.17;0.97;;;13.00;99.90;;;;;;7394308;19;20130;-84
2023/09/25 02:49:57;;;;;;;1.08;0.90;;;13.10;99.90;;;;;;7393323;19;20658;-83
2023/09/25 02:52:25;;;;;;;1.02;0.90;;;13.30;99.90;;;;;;7395613;19;20546;-83
2023/09/25 02:54:51;;;;;;;2.20;0.77;;;13.00;99.90;;;;;;7395710;19;20144;-83
2023/09/25 02:57:17;;;;;;;0.63;0.60;;;13.10;99.90;;;;;;7393805;19;20131;-84
2023/09/25 02:59:43;;;;;;;1.38;1.10;;;13.10;99.90;;;;;;7395201;19;20222;-83
2023/09/25 03:02:08;;;;;;;1.92;1.02;;;12.90;99.90;;;;;;7394145;19;20344;-83
2023/09/25 03:04:34;;;;;;;0.98;0.88;;;12.60;99.90;;;;;;7393127;19;20191;-83
2023/09/25 03:07:00;;;;;;;0.70;0.70;;;12.40;99.90;;;;;;7392207;19;20131;-83
2023/09/25 03:09:26;;;;;;;1.23;0.90;;;12.00;99.90;;;;;;7393555;19;20456;-82
2023/09/25 03:11:51;;;;;;;2.45;0.90;;;12.10;99.90;;;;;;7393963;19;20213;-84
2023/09/25 03:14:17;;;;;;;1.35;1.05;;;12.00;99.90;;;;;;7394616;19;20506;-83
2023/09/25 03:16:43;;;;;;;0.70;0.60;;;12.40;99.90;;;;;;7395267;19;20603;-83
2023/09/25 03:19:09;;;;;;;0.85;0.80;;;12.80;99.90;;;;;;7394727;19;20147;-83
2023/09/25 03:21:34;;;;;;;0.98;0.60;;;12.80;99.90;;;;;;7394013;19;20131;-83
2023/09/25 03:24:00;;;;;;;0.70;0.70;;;12.80;99.90;;;;;;7395151;19;20450;-83
2023/09/25 03:26:26;;;;;;;0.75;0.60;;;12.90;99.90;;;;;;7394613;19;20642;-85
2023/09/25 03:28:52;;;;;;;1.08;0.70;;;12.90;99.90;;;;;;7393808;19;20175;-82
2023/09/25 03:31:18;;;;;;;0.63;0.60;;;13.00;99.90;;;;;;7392651;19;20138;-82
2023/09/25 03:33:45;;;;;;;0.70;0.70;;;13.10;99.90;;;;;;7393128;19;20502;-82
2023/09/25 03:36:11;;;;;;;0.70;0.70;;;12.80;99.90;;;;;;7393166;19;20141;-83
2023/09/25 03:38:37;;;;;;;0.52;0.47;;;12.60;99.90;;;;;;7393258;19;20488;-81
2023/09/25 03:41:03;;;;;;;1.10;0.80;;;12.40;99.90;;;;;;7393651;19;20618;-82
2023/09/25 03:43:29;;;;;;;1.25;0.68;;;12.50;99.90;;;;;;7393154;19;20135;-83
2023/09/25 03:45:55;;;;;;;0.80;0.63;;;12.60;99.90;;;;;;7392419;19;20164;-81
2023/09/25 03:48:21;;;;;;;0.75;0.50;;;12.70;99.90;;;;;;7389548;19;20146;-82
2023/09/25 03:50:46;;;;;;;1.50;0.77;;;12.40;99.90;;;;;;7392763;19;20147;-82
2023/09/25 03:53:12;;;;;;;0.63;0.60;;;12.40;99.90;;;;;;7392387;19;20603;-82
2023/09/25 03:55:38;;;;;;;0.98;0.70;;;12.00;99.90;;;;;;7390721;19;20135;-81
2023/09/25 03:58:04;;;;;;;0.77;0.75;;;12.10;99.90;;;;;;7390813;19;20492;-83
2023/09/25 04:00:30;;;;;;;1.30;0.90;;;12.10;99.90;;;;;;7392083;19;20149;-81
2023/09/25 04:02:56;;;;;;;1.17;0.90;;;12.00;99.90;;;;;;7391109;19;20153;-82
2023/09/25 04:05:21;;;;;;;0.93;0.82;;;12.00;99.90;;;;;;7390463;19;20146;-82
2023/09/25 04:07:47;;;;;;;1.42;0.70;;;12.10;99.90;;;;;;7391208;19;20127;-82
2023/09/25 04:10:13;;;;;;;1.38;1.00;;;12.00;99.90;;;;;;7391565;19;20142;-81
2023/09/25 04:12:39;;;;;;;0.80;0.80;;;11.70;99.90;;;;;;7391840;19;20139;-81
2023/09/25 04:15:10;;;;;;;1.05;0.57;;;11.70;99.90;;;;;;7391458;19;20149;-81
2023/09/25 04:17:38;;;;;;;0.77;0.77;;;11.60;99.90;;;;;;7391557;19;20134;-80
2023/09/25 04:20:08;;;;;;;1.15;0.93;;;11.60;99.90;;;;;;7391469;19;20135;-81
2023/09/25 04:22:37;;;;;;;1.55;0.90;;;11.80;99.90;;;;;;7389080;19;20131;-81
2023/09/25 04:25:08;;;;;;;0.80;0.80;;;11.80;99.90;;;;;;7390124;19;20155;-82
2023/09/25 04:27:35;;;;;;;1.30;1.00;;;12.10;99.90;;;;;;7389033;19;20674;-82
2023/09/25 04:30:03;;;;;;;0.88;0.80;;;12.00;99.90;;;;;;7391393;19;20139;-82
2023/09/25 04:32:29;;;;;;;0.75;0.70;;;11.90;99.90;;;;;;7391342;19;20740;-82
2023/09/25 04:34:55;;;;;;;0.77;0.77;;;12.00;99.90;;;;;;7389190;19;20138;-82
2023/09/25 04:37:20;;;;;;;0.98;0.73;;;11.70;99.90;;;;;;7390725;19;20137;-82
2023/09/25 04:39:48;;;;;;;1.27;1.00;;;11.60;99.90;;;;;;7391072;19;20214;-82
2023/09/25 04:42:14;;;;;;;0.70;0.70;;;11.80;99.90;;;;;;7392930;19;20195;-82
2023/09/25 04:44:40;;;;;;;1.08;0.88;;;11.60;99.90;;;;;;7391049;19;20154;-82
2023/09/25 04:47:06;;;;;;;1.45;1.00;;;11.40;99.90;;;;;;7389748;19;20127;-81
2023/09/25 04:49:32;;;;;;;0.68;0.68;;;11.40;99.90;;;;;;7391406;19;20130;-82
2023/09/25 04:51:58;;;;;;;0.85;0.85;;;11.30;99.90;;;;;;7389898;19;20534;-82
2023/09/25 04:54:24;;;;;;;0.75;0.65;;;11.20;99.90;;;;;;7388238;19;20242;-82
2023/09/25 04:56:50;;;;;;;0.65;0.45;;;11.20;99.90;;;;;;7389057;19;20139;-82
2023/09/25 04:59:15;;;;;;;0.50;0.50;;;11.60;99.90;;;;;;7388834;19;20158;-82
2023/09/25 05:01:41;;;;;;;1.25;1.13;;;11.80;99.90;;;;;;7389107;19;20153;-81
2023/09/25 05:04:08;;;;;;;0.60;0.60;;;11.40;99.90;;;;;;7389366;19;20150;-82
2023/09/25 05:06:33;;;;;;;1.00;0.68;;;11.60;99.90;;;;;;7384988;19;20483;-81
2023/09/25 05:08:59;;;;;;;1.33;1.00;;;11.60;99.90;;;;;;7394286;19;20138;-81
2023/09/25 05:11:25;;;;;;;1.20;0.90;;;11.40;99.90;;;;;;7397361;19;20135;-82
2023/09/25 05:13:52;;;;;;;6.47;3.80;;;11.40;99.90;;;;;;7395784;19;20161;-81
2023/09/25 05:16:19;;;;;;;1.95;1.10;;;11.10;99.90;;;;;;7390859;19;20475;-82
2023/09/25 05:18:45;;;;;;;1.10;0.73;;;11.10;99.90;;;;;;7395043;19;20214;-82
2023/09/25 05:21:10;;;;;;;2.22;1.00;;;11.10;99.90;;;;;;7395506;19;20143;-83
2023/09/25 05:23:36;;;;;;;0.90;0.82;;;11.20;99.90;;;;;;7395199;19;20210;-82
2023/09/25 05:26:02;;;;;;;1.48;1.23;;;11.30;99.90;;;;;;7394473;19;20615;-81
2023/09/25 05:28:29;;;;;;;1.50;1.17;;;11.50;99.90;;;;;;7392885;19;20167;-83
2023/09/25 05:30:56;;;;;;;0.87;0.87;;;12.00;99.90;;;;;;7391958;19;20270;-83
2023/09/25 05:33:22;;;;;;;1.10;0.75;;;12.00;99.90;;;;;;7396094;19;20511;-80
2023/09/25 05:35:48;;;;;;;0.95;0.88;;;12.00;99.90;;;;;;7392051;19;20145;-80
2023/09/25 05:38:14;;;;;;;0.73;0.73;;;12.00;99.90;;;;;;7396188;19;20198;-80
2023/09/25 05:40:41;;;;;;;1.00;0.70;;;12.10;99.90;;;;;;7395970;19;20126;-80
2023/09/25 05:43:07;;;;;;;1.03;0.83;;;12.40;99.90;;;;;;7394206;19;20151;-82
2023/09/25 05:45:33;;;;;;;0.70;0.70;;;12.30;99.90;;;;;;7393814;19;20546;-83
2023/09/25 05:47:58;;;;;;;0.80;0.73;;;12.40;99.90;;;;;;7393465;19;20924;-82
2023/09/25 05:50:28;;;;;;;0.88;0.80;;;12.40;99.90;;;;;;7396274;19;20494;-81
2023/09/25 05:52:54;;;;;;;0.80;0.80;;;12.40;99.90;;;;;;7393965;19;20147;-81
2023/09/25 05:55:20;;;;;;;1.48;1.20;;;12.40;99.90;;;;;;7393255;19;20130;-82
2023/09/25 05:57:46;;;;;;;1.17;0.80;;;12.40;99.90;;;;;;7393101;19;20162;-81
2023/09/25 06:00:12;;;;;;;1.15;0.85;;;12.10;99.90;;;;;;7394592;19;20515;-86
2023/09/25 06:02:42;;;;;;;0.80;0.80;;;11.70;99.90;;;;;;7394920;19;20130;-84
2023/09/25 06:05:09;;;;;;;1.13;1.03;;;11.70;99.90;;;;;;7394475;19;20158;-85
2023/09/25 06:07:38;;;;;;;1.33;0.93;;;11.90;99.90;;;;;;7395278;19;20150;-85
2023/09/25 06:10:04;;;;;;;1.20;1.08;;;12.10;99.90;;;;;;7396773;19;20142;-85
2023/09/25 06:12:31;;;;;;;0.75;0.75;;;12.10;99.90;;;;;;7395767;19;20138;-87
2023/09/25 06:14:57;;;;;;;1.05;0.80;;;12.30;99.90;;;;;;7395896;19;20173;-86
2023/09/25 06:17:26;;;;;;;1.25;0.90;;;12.30;99.90;;;;;;7397238;19;20151;-87
2023/09/25 06:19:53;;;;;;;1.17;0.77;;;12.30;99.90;;;;;;7394292;19;20206;-85
2023/09/25 06:22:21;;;;;;;1.33;1.03;;;12.20;99.90;;;;;;7397033;19;20560;-87
2023/09/25 06:24:48;;;;;;;1.15;1.05;;;12.00;99.90;;;;;;7396951;19;20135;-87
2023/09/25 06:27:14;;;;;;;1.08;0.95;;;12.00;99.90;;;;;;7396600;19;20491;-87
2023/09/25 06:29:42;;;;;;;1.42;1.10;;;12.00;99.90;;;;;;7395783;19;20134;-88
2023/09/25 06:32:12;;;;;;;5.13;1.20;;;11.80;99.90;;;;;;7399502;19;20134;-84
2023/09/25 06:34:39;;;;;;;1.10;1.00;;;11.70;99.90;;;;;;7397539;19;20142;-83
2023/09/25 06:37:05;;;;;;;0.57;0.57;;;11.60;99.90;;;;;;7394186;19;20131;-83
2023/09/25 06:39:31;;;;;;;1.43;0.90;;;11.50;99.90;;;;;;7394696;19;20611;-88
2023/09/25 06:41:56;;;;;;;0.77;0.67;;;11.50;99.90;;;;;;7396236;19;20245;-84
2023/09/25 06:44:22;;;;;;;1.10;1.00;;;11.60;99.90;;;;;;7396021;19;20138;-88
2023/09/25 06:46:49;;;;;;;0.73;0.70;;;11.60;99.90;;;;;;7399507;19;20159;-87
2023/09/25 06:49:15;;;;;;;5.63;3.80;;;12.00;99.90;;;;;;7395599;19;20465;-84
2023/09/25 06:51:41;;;;;;;1.05;0.93;;;12.00;99.90;;;;;;7393477;19;20155;-86
2023/09/25 06:54:09;;;;;;;1.43;0.70;;;11.80;99.90;;;;;;7395154;19;20127;-83
2023/09/25 06:56:35;;;;;;;1.23;1.13;;;11.60;99.90;;;;;;7394892;19;20146;-86
2023/09/25 06:59:02;;;;;;;1.02;0.93;;;11.50;99.90;;;;;;7396170;19;20123;-85
2023/09/25 07:01:27;;;;;;;1.20;1.10;;;11.70;99.90;;;;;;7394864;19;20150;-88
2023/09/25 07:03:53;;;;;;;1.67;1.05;;;11.70;99.90;;;;;;7394759;19;20138;-87
2023/09/25 07:06:22;;;;;;;1.30;1.00;;;11.70;99.90;;;;;;7394419;19;20170;-87
2023/09/25 07:08:48;;;;;;;2.33;1.40;;;11.90;99.90;;;;;;7394166;19;20155;-89
2023/09/25 07:11:18;;;;;;;2.47;1.40;;;11.90;99.90;;;;;;7398946;19;20149;-89
2023/09/25 07:13:47;;;;;;;3.70;2.45;;;12.00;99.90;;;;;;7400125;19;20171;-89
2023/09/25 07:16:13;;;;;;;2.53;1.60;;;12.40;99.90;;;;;;7394340;19;20135;-87
2023/09/25 07:18:43;;;;;;;1.48;1.38;;;12.70;99.90;;;;;;7396455;19;20433;-88
2023/09/25 07:21:09;;;;;;;2.03;1.50;;;13.00;99.90;;;;;;7395168;19;20230;-88
2023/09/25 07:23:35;;;;;;;2.42;2.00;;;13.30;99.90;;;;;;7396616;19;20615;-86
2023/09/25 07:26:09;;;;;;;1.70;1.37;;;13.60;99.90;;;;;;7399400;19;20138;-85
2023/09/25 07:28:36;;;;;;;1.80;1.30;;;13.50;99.90;;;;;;7395199;19;20135;-84
2023/09/25 07:31:02;;;;;;;1.98;1.45;;;13.50;99.90;;;;;;7392722;19;20134;-86
2023/09/25 07:33:29;;;;;;;1.57;1.10;;;13.50;99.90;;;;;;7398713;19;20158;-89
2023/09/25 07:35:56;;;;;;;1.50;1.10;;;13.70;99.90;;;;;;7395646;19;20134;-86
2023/09/25 07:38:22;;;;;;;2.17;1.27;;;13.80;99.90;;;;;;7394647;19;20147;-84
2023/09/25 07:40:48;;;;;;;1.33;1.20;;;13.70;99.90;;;;;;7393211;19;20133;-84
2023/09/25 07:43:23;;;;;;;2.42;1.80;;;13.90;99.90;;;;;;7394877;19;20570;-85
2023/09/25 07:45:52;;;;;;;3.58;1.73;;;14.00;99.90;;;;;;7395299;19;20222;-85
2023/09/25 07:48:18;;;;;;;2.95;1.77;;;14.00;99.90;;;;;;7393243;19;20130;-88
2023/09/25 07:50:48;;;;;;;1.55;1.33;;;14.10;99.90;;;;;;7399102;19;20501;-85
2023/09/25 07:53:14;;;;;;;1.40;1.30;;;14.10;99.90;;;;;;7396655;19;20599;-87
2023/09/25 07:55:41;;;;;;;2.22;1.40;;;14.10;99.90;;;;;;7400133;19;20195;-86
2023/09/25 07:58:08;;;;;;;1.95;1.13;;;14.10;99.90;;;;;;7395393;19;20155;-86
2023/09/25 08:00:39;;;;;;;1.40;1.27;;;14.20;99.90;;;;;;7394134;19;20150;-87
2023/09/25 08:03:06;;;;;;;1.33;1.03;;;14.20;99.90;;;;;;7402007;19;20147;-86
2023/09/25 08:05:33;;;;;;;2.45;1.30;;;14.30;99.90;;;;;;7398368;19;20154;-87
2023/09/25 08:07:58;;;;;;;1.67;1.13;;;14.10;99.90;;;;;;7396265;19;20154;-89
2023/09/25 08:10:28;;;;;;;1.38;1.00;;;13.90;99.90;;;;;;7394469;19;20147;-89
2023/09/25 08:12:54;;;;;;;1.60;1.30;;;14.30;99.90;;;;;;7403450;19;20138;-85
2023/09/25 08:15:20;;;;;;;3.00;1.23;;;14.50;99.90;;;;;;7395744;19;20141;-87
2023/09/25 08:17:48;;;;;;;2.30;1.45;;;14.70;99.90;;;;;;7392387;19;20607;-87
2023/09/25 08:20:16;;;;;;;1.30;1.20;;;14.70;99.90;;;;;;7393851;19;20155;-83
2023/09/25 08:22:43;;;;;;;2.75;1.25;;;14.80;99.90;;;;;;7398726;19;20533;-86
2023/09/25 08:25:10;;;;;;;1.08;0.90;;;14.90;99.90;;;;;;7402660;19;20149;-87
2023/09/25 08:27:37;;;;;;;1.77;0.90;;;15.10;99.90;;;;;;7393405;19;20506;-85
2023/09/25 08:30:04;;;;;;;0.80;0.80;;;15.20;99.90;;;;;;7392686;19;20165;-85
2023/09/25 08:32:31;;;;;;;1.17;0.93;;;15.30;99.90;;;;;;7390735;19;20181;-82
2023/09/25 08:34:57;;;;;;;1.40;1.00;;;15.30;99.90;;;;;;7391511;19;20139;-88
2023/09/25 08:37:24;;;;;;;0.93;0.85;;;15.40;99.90;;;;;;7390779;19;20166;-83
2023/09/25 08:39:54;;;;;;;1.33;0.95;;;15.50;99.90;;;;;;7390980;19;20478;-86
2023/09/25 08:42:21;;;;;;;1.13;1.02;;;15.60;99.90;;;;;;7392178;19;20226;-88
2023/09/25 08:44:51;;;;;;;1.45;1.05;;;15.80;99.90;;;;;;7397318;19;20427;-87
2023/09/25 08:47:21;;;;;;;1.02;0.80;;;16.00;99.90;;;;;;7400808;19;20127;-87
2023/09/25 08:49:52;;;;;;;0.93;0.85;;;16.20;99.90;;;;;;7400726;19;20149;-86
2023/09/25 08:52:19;;;;;;;1.58;1.10;;;16.20;99.90;;;;;;7398522;19;20126;-85
2023/09/25 08:54:48;;;;;;;1.50;1.10;;;16.30;99.90;;;;;;7397621;19;20122;-85
2023/09/25 08:57:15;;;;;;;1.20;0.98;;;16.40;99.90;;;;;;7397380;19;20157;-83
2023/09/25 08:59:44;;;;;;;1.17;0.82;;;16.50;99.90;;;;;;7398495;19;20153;-85
2023/09/25 09:02:12;;;;;;;1.30;0.93;;;16.50;99.90;;;;;;7398798;19;20142;-84
2023/09/25 09:04:38;;;;;;;1.05;0.70;;;16.70;99.90;;;;;;7398177;19;20460;-85
2023/09/25 09:07:06;;;;;;;0.93;0.82;;;16.80;99.90;;;;;;7399178;19;20150;-85
2023/09/25 09:09:32;;;;;;;0.70;0.70;;;16.90;99.90;;;;;;7407751;19;20461;-86
2023/09/25 09:11:58;;;;;;;1.50;0.95;;;16.90;99.90;;;;;;7398305;19;20177;-87
2023/09/25 09:14:40;;;;;;;1.25;1.00;;;17.10;99.90;;;;;;7397769;19;20127;-86
2023/09/25 09:17:07;;;;;;;1.70;0.80;;;17.10;99.90;;;;;;7398990;19;20138;-87
2023/09/25 09:19:36;;;;;;;1.48;0.85;;;17.20;99.90;;;;;;7399576;19;20144;-87
2023/09/25 09:22:05;;;;;;;1.05;0.80;;;17.20;99.90;;;;;;7397457;19;20222;-86
2023/09/25 09:24:35;;;;;;;0.65;0.65;;;17.20;99.90;;;;;;7400029;19;20213;-89
2023/09/25 09:27:01;;;;;;;2.17;0.90;;;17.30;99.90;;;;;;7398652;19;20134;-87
2023/09/25 09:29:28;;;;;;;0.60;0.60;;;17.30;99.90;;;;;;7401079;19;20160;-87
2023/09/25 09:31:56;;;;;;;1.13;0.82;;;17.40;99.90;;;;;;7398197;19;20150;-85
2023/09/25 09:34:25;;;;;;;1.92;1.00;;;17.50;99.90;;;;;;7397667;19;20156;-86
2023/09/25 09:36:52;;;;;;;0.93;0.90;;;17.50;99.90;;;;;;7398574;19;20138;-87
2023/09/25 09:39:21;;;;;;;0.43;0.43;;;17.50;99.90;;;;;;7396384;19;20145;-86
2023/09/25 09:41:50;;;;;;;1.02;0.70;;;17.60;99.90;;;;;;7398474;19;20157;-86
2023/09/25 09:44:18;;;;;;;1.35;0.70;;;17.70;99.90;;;;;;7399783;19;20146;-87
2023/09/25 09:46:47;;;;;;;0.85;0.80;;;17.80;99.90;;;;;;7399255;19;20139;-88
2023/09/25 09:49:15;;;;;;;2.50;1.45;;;17.90;99.90;;;;;;7397812;19;20658;-87
2023/09/25 09:51:45;;;;;;;0.77;0.70;;;18.00;99.90;;;;;;7398493;19;20618;-87
2023/09/25 09:54:12;;;;;;;1.95;1.38;;;18.10;99.90;;;;;;7397016;19;20488;-85
2023/09/25 09:56:39;;;;;;;1.05;0.80;;;18.20;99.90;;;;;;7395539;19;20139;-85
2023/09/25 09:59:08;;;;;;;0.60;0.60;;;18.10;99.90;;;;;;7396586;19;20518;-86
2023/09/25 10:01:35;;;;;;;1.48;0.80;;;18.30;99.90;;;;;;7395418;19;20145;-87
2023/09/25 10:04:07;;;;;;;0.88;0.88;;;18.30;99.90;;;;;;7397300;19;20153;-86
2023/09/25 10:06:43;;;;;;;0.70;0.70;;;18.30;99.90;;;;;;7395038;19;20482;-86
2023/09/25 10:09:13;;;;;;;0.82;0.60;;;18.40;99.90;;;;;;7397136;19;20213;-86
2023/09/25 10:11:42;;;;;;;0.40;0.40;;;18.40;99.90;;;;;;7398126;19;20621;-85
2023/09/25 10:14:08;;;;;;;0.43;0.43;;;18.40;99.90;;;;;;7402609;19;20126;-85
2023/09/25 10:16:53;;;;;;;1.00;0.70;;;18.40;99.90;;;;;;7399207;19;20131;-84
2023/09/25 10:19:20;;;;;;;0.70;0.70;;;18.50;99.90;;;;;;7396777;19;20150;-86
2023/09/25 10:22:06;;;;;;;0.95;0.80;;;18.50;99.90;;;;;;7398053;19;20631;-85
2023/09/25 10:24:33;;;;;;;0.93;0.80;;;18.60;99.90;;;;;;7400379;19;20143;-86
2023/09/25 10:26:59;;;;;;;2.08;1.05;;;18.60;99.90;;;;;;7408195;19;20143;-88
2023/09/25 10:29:26;;;;;;;0.70;0.70;;;18.70;99.90;;;;;;7405919;19;20131;-88
2023/09/25 10:31:52;;;;;;;0.93;0.73;;;18.80;99.90;;;;;;7403667;19;20149;-86
2023/09/25 10:34:21;;;;;;;2.05;0.70;;;18.70;99.90;;;;;;7402502;19;20139;-90
2023/09/25 10:36:50;;;;;;;0.65;0.63;;;18.80;99.90;;;;;;7398994;19;20154;-87
2023/09/25 10:39:17;;;;;;;0.60;0.50;;;18.90;99.90;;;;;;7397135;19;20482;-87
2023/09/25 10:41:47;;;;;;;1.83;1.13;;;19.00;99.90;;;;;;7398214;19;20233;-88
2023/09/25 10:44:14;;;;;;;1.17;1.10;;;19.00;99.90;;;;;;7397211;19;20154;-86
2023/09/25 10:46:40;;;;;;;0.93;0.80;;;19.10;99.90;;;;;;7395460;19;20359;-85
2023/09/25 10:49:06;;;;;;;1.35;0.90;;;19.10;99.90;;;;;;7394230;19;20157;-86
2023/09/25 10:51:32;;;;;;;1.15;0.80;;;19.10;99.90;;;;;;7396010;19;20122;-85
2023/09/25 10:54:03;;;;;;;1.02;0.65;;;19.20;99.90;;;;;;7396976;19;20131;-85
2023/09/25 10:56:30;;;;;;;3.17;1.80;;;19.30;99.90;;;;;;7395716;19;20588;-87
2023/09/25 10:58:56;;;;;;;1.38;0.80;;;19.20;99.90;;;;;;7394379;19;20131;-85
2023/09/25 11:01:27;;;;;;;0.88;0.70;;;19.50;99.90;;;;;;7399857;19;20129;-88
2023/09/25 11:03:53;;;;;;;0.82;0.70;;;19.50;99.90;;;;;;7394104;19;20146;-88
2023/09/25 11:06:19;;;;;;;0.95;0.70;;;19.50;99.90;;;;;;7392756;19;20185;-88
2023/09/25 11:08:45;;;;;;;0.85;0.60;;;19.50;99.90;;;;;;7392646;19;20131;-87
2023/09/25 11:11:14;;;;;;;1.15;0.90;;;19.50;99.90;;;;;;7394991;19;20571;-88
2023/09/25 11:13:40;;;;;;;0.95;0.80;;;19.70;99.90;;;;;;7395410;19;20147;-89
2023/09/25 11:16:06;;;;;;;0.75;0.70;;;19.80;99.90;;;;;;7393262;19;20533;-88
2023/09/25 11:18:32;;;;;;;1.02;0.80;;;19.80;99.90;;;;;;7395044;19;20143;-85
2023/09/25 11:21:00;;;;;;;1.10;0.70;;;19.80;99.90;;;;;;7392035;19;20146;-85
2023/09/25 11:23:26;;;;;;;1.38;0.93;;;19.90;99.90;;;;;;7392830;19;20640;-87
2023/09/25 11:25:53;;;;;;;1.00;0.75;;;20.00;99.90;;;;;;7395895;19;20147;-85
2023/09/25 11:28:21;;;;;;;0.80;0.60;;;20.20;99.90;;;;;;7392567;19;20186;-88
2023/09/25 11:30:47;;;;;;;0.60;0.60;;;20.20;99.90;;;;;;7394585;19;20180;-84
2023/09/25 11:33:21;;;;;;;2.28;1.15;;;20.30;99.90;;;;;;7394718;19;20134;-82
2023/09/25 11:35:49;;;;;;;1.00;0.90;;;20.40;99.90;;;;;;7392699;19;20153;-83
2023/09/25 11:38:18;;;;;;;1.13;0.82;;;20.30;99.90;;;;;;7394471;19;20137;-82
2023/09/25 11:40:45;;;;;;;2.78;1.10;;;20.40;99.90;;;;;;7394466;19;20134;-82
2023/09/25 11:43:12;;;;;;;0.70;0.60;;;20.40;99.90;;;;;;7392114;19;20147;-83
2023/09/25 11:45:40;;;;;;;2.47;1.50;;;20.50;99.90;;;;;;7393841;19;20251;-83
2023/09/25 11:48:06;;;;;;;0.73;0.60;;;20.50;99.90;;;;;;7391099;19;20127;-85
2023/09/25 11:50:32;;;;;;;2.25;0.88;;;20.60;99.90;;;;;;7393270;19;20201;-84
2023/09/25 11:52:59;;;;;;;2.03;0.95;;;20.60;99.90;;;;;;7392980;19;20606;-84
2023/09/25 11:55:24;;;;;;;0.75;0.75;;;20.50;99.90;;;;;;7393649;19;20143;-85
2023/09/25 11:57:50;;;;;;;2.53;1.05;;;20.60;99.90;;;;;;7393318;19;20150;-82
2023/09/25 12:00:18;;;;;;;2.33;1.30;;;20.70;99.90;;;;;;7395183;19;20198;-80
2023/09/25 12:02:48;;;;;;;10.68;6.00;;;20.80;99.90;;;;;;7393493;19;20607;-82
2023/09/25 12:05:20;;;;;;;2.30;1.27;;;20.90;99.90;;;;;;7392096;19;20150;-82
2023/09/25 12:07:47;;;;;;;0.88;0.80;;;20.90;99.90;;;;;;7391989;19;20142;-81
2023/09/25 12:10:20;;;;;;;1.45;0.88;;;21.00;99.90;;;;;;7393299;19;20142;-83
2023/09/25 12:12:47;;;;;;;1.17;0.90;;;21.20;99.90;;;;;;7395192;19;20138;-81
2023/09/25 12:15:14;;;;;;;0.85;0.75;;;21.30;99.90;;;;;;7391789;19;20155;-82
2023/09/25 12:17:41;;;;;;;0.75;0.55;;;21.30;99.90;;;;;;7395131;19;20126;-81
2023/09/25 12:20:15;;;;;;;1.42;0.90;;;21.30;99.90;;;;;;7399569;19;20150;-81
2023/09/25 12:22:45;;;;;;;2.72;0.88;;;21.30;99.90;;;;;;7397307;19;20386;-84
2023/09/25 12:25:16;;;;;;;2.10;1.02;;;21.40;99.90;;;;;;7399235;19;20475;-82
2023/09/25 12:27:45;;;;;;;2.13;1.10;;;21.40;99.90;;;;;;7400781;19;20135;-83
2023/09/25 12:30:15;;;;;;;0.80;0.80;;;21.40;99.90;;;;;;7399270;19;20163;-83
2023/09/25 12:32:47;;;;;;;1.05;0.70;;;21.40;99.90;;;;;;7402183;19;20130;-85
2023/09/25 12:35:15;;;;;;;0.70;0.70;;;21.30;99.90;;;;;;7399268;19;20143;-85
2023/09/25 12:37:45;;;;;;;0.57;0.57;;;21.30;99.90;;;;;;7399981;19;20153;-84
2023/09/25 12:40:15;;;;;;;1.23;0.93;;;21.30;99.90;;;;;;7398963;19;20139;-83
2023/09/25 12:42:44;;;;;;;0.95;0.82;;;21.60;99.90;;;;;;7399399;19;20559;-83
2023/09/25 12:45:11;;;;;;;0.85;0.52;;;21.50;99.90;;;;;;7397701;19;20151;-83
2023/09/25 12:47:38;;;;;;;0.57;0.57;;;21.50;99.90;;;;;;7404057;19;20153;-83